Tiempo atmosférico en la estación meteorológica de Valmadrid, Zaragoza (535 m.)



Fecha
DESCASC
Temp. máxima en grados centígrados (hora)
DESCASC
Temp. mínima en grados centígrados (hora)
DESCASC
Temp. media en grados centígrados
DESCASC
Racha de viento máxima en m/sg (hora)
DESCASC
Velocidad máxima media en intervalos de 10 minutos(hora)
DESCASC
Precipitaciones diarias en mm
DESCASC
Precipitaciones de 00:00 a 06:00 en mm
DESCASC
Precipitaciones de 06:00 a 12:00 en mm
DESCASC
Precipitaciones de 12:00 a 18:00 en mm
DESCASC
Precipitaciones de 18:00 a 24:00 en mm
DESCASC
04-03-2021 14 (15:50) 4.1 (23:59) 9 3.89 (16:50) 2.78 (23:59) 0 0 0 0 0
03-03-2021 12.2 (16:00) 6.4 (23:50) 9.3 4.44 (15:50) 2.78 (16:30) 0 0 0 0 0
02-03-2021 9.9 (17:50) 6.9 (07:00) 8.4 6.67 (14:30) 4.72 (14:30) 0.2 0 0.2 0 0
01-03-2021 8.9 (14:20) 5.7 (00:20) 7.3 11.67 (17:40) 8.06 (17:40) 0 0 0 0 0
28-02-2021 12.6 (16:00) 4.2 (00:00) 8.4 20.83 (16:50) 10.56 (18:20) 0 0 0 0 0
27-02-2021 14.6 (15:30) 6 (00:00) 10.3 12.78 (22:50) 7.78 (22:50) 0 0 0 0 0
26-02-2021 15.6 (14:50) 4.6 (00:00) 10.1 4.44 (16:10) 2.78 (01:00) 0 0 0 0 0
25-02-2021 14 (15:30) 5.4 (00:00) 9.7 5.56 (11:50) 3.06 (11:50) 0 0 0 0 0
24-02-2021 14.8 (15:50) 4.7 (00:00) 9.8 10.56 (19:20) 6.67 (19:30) 0 0 0 0 0
23-02-2021 13.1 (16:00) 2 (00:00) 7.6 7.78 (15:10) 4.72 (15:00) 0 0 0 0 0
22-02-2021 10.2 (00:00) 4.7 (00:00) 7.4 13.89 (09:50) 8.61 (08:20) 12.4 12.4 0 0 0
21-02-2021 12 (15:30) 6.5 (00:00) 9.3 18.89 (08:50) 10.56 (11:30) 0 0 0 0 0
20-02-2021 16.1 (16:50) 5.3 (00:00) 10.7 9.17 (17:00) 5.28 (17:10) 0 0 0 0 0
19-02-2021 17.8 (12:10) 8.1 (00:00) 12.9 9.72 (00:20) 5.83 (00:20) 0 0 0 0 0
18-02-2021 20.3 (14:40) 3.4 (00:00) 11.8 10.28 (23:59) 5.83 (23:10) 0 0 0 0 0
17-02-2021 15.1 (14:10) 9.5 (00:00) 12.3 7.5 (04:00) 5.28 (04:00) 0 0 0 0 0
16-02-2021 13 (17:10) 4.9 (00:00) 9 7.22 (23:30) 5.28 (23:40) 0 0 0 0 0
15-02-2021 10.5 (17:00) 4.5 (00:00) 7.5 7.22 (20:00) 4.72 (15:50) 0 0 0 0 0
14-02-2021 12.7 (14:20) 1.3 (00:00) 7 11.39 (00:20) 7.22 (01:00) 0 0 0 0 0
13-02-2021 13.5 (13:00) 7.3 (00:00) 10.4 17.78 (03:50) 11.39 (03:10) 0 0 0 0 0
12-02-2021 13.5 (01:50) 7.7 (00:00) 10.6 18.61 (19:10) 12.5 (19:20) 3 0 1.6 1.4 0
11-02-2021 16.9 (15:30) 3.2 (00:00) 10 16.94 (13:00) 10 (12:30) 0 0 0 0 0
10-02-2021 12.5 (15:20) 4 (00:00) 8.3 13.61 (09:20) 8.61 (10:30) 4.6 2.8 1.8 0 0
09-02-2021 13.2 (15:50) 5.8 (00:00) 9.5 15.28 (17:00) 8.33 (17:30) 0.4 0 0 0 0.4
08-02-2021 12.4 (14:20) 7.1 (00:00) 9.7 18.89 (16:50) 10.83 (14:30) 0.4 0 0.4 0 0
07-02-2021 9.9 (14:20) 3.1 (00:00) 6.5 16.67 (06:50) 11.94 (11:20) 0 0 0 0 0
06-02-2021 16 (14:00) 5.7 (00:00) 10.8 17.5 (22:50) 11.94 (23:20) 4.4 2.4 0.4 1.6 0
05-02-2021 14.5 (15:40) 6.1 (00:00) 10.3 9.17 (17:50) 3.61 (17:20) 0 0 0 0 0
04-02-2021 15.2 (16:10) 7.3 (00:00) 11.3 8.06 (15:10) 5 (15:10) 0 0 0 0 0

Gráficas

Temp. máximas Temp. mínimas Temp. medias Precipitaciones Rachas de viento máximas Velocidades máximas media en intervalos de 10 minutos

Datos horarios

Fecha y hora oficial Temperatura (ºC) Velocidad del viento (km/h) Dirección del viento Racha (km/h) Dirección de racha Precipitación (mm) Presión (hPa) Tendencia (hPa) Humedad (%)
2021-03-05 23:00:00 7.6 4 Nordeste 22 Oeste 0 -- -- 87
2021-03-05 22:00:00 9.5 5 Noroeste 10 Este 0 -- -- 81
2021-03-05 21:00:00 7.7 3 Sudeste 10 Sudeste 0 -- -- 86
2021-03-05 20:00:00 6.7 8 Sudeste 12 Sudeste 0 -- -- 89
2021-03-05 19:00:00 9.4 4 Sudeste 10 Sudeste 0 -- -- 80
2021-03-05 18:00:00 13.7 0 Calma 9 Oeste 0 -- -- 60
2021-03-05 17:00:00 14.5 4 Nordeste 11 Norte 0 -- -- 58
2021-03-05 16:00:00 14.1 7 Oeste 17 Noroeste 0 -- -- 59
2021-03-05 15:00:00 13.5 4 Noroeste 12 Oeste 0 -- -- 66
2021-03-05 14:00:00 12.9 4 Noroeste 12 Oeste 0 -- -- 68
2021-03-05 13:00:00 12.4 9 Oeste 14 Oeste 0 -- -- 72
2021-03-05 12:00:00 11.8 8 Oeste 12 Oeste 0 -- -- 77
2021-03-05 11:00:00 10.6 0 Calma 9 Oeste 0 -- -- 83
2021-03-05 10:00:00 9.1 5 Sudeste 10 Sudeste 0 -- -- 92
2021-03-05 09:00:00 6.4 5 Sudeste 11 Sudeste 0 -- -- 100
2021-03-05 08:00:00 3.4 6 Sudeste 18 Sudeste 0 -- -- 100
2021-03-05 07:00:00 3.5 8 Sudeste 12 Sudeste 0 -- -- 99
2021-03-05 06:00:00 4.4 8 Sudeste 10 Sudeste 0 -- -- 100
2021-03-05 05:00:00 4.5 4 Sudeste 14 Sudeste 0 -- -- 99
2021-03-05 04:00:00 3.6 4 Sur 11 Sudeste 0 -- -- 99
2021-03-05 03:00:00 3.7 8 Sudeste 11 Sudeste 0 -- -- 99
2021-03-05 02:00:00 3.8 6 Sudeste 12 Sudeste 0 -- -- 99
2021-03-05 01:00:00 4 9 Sudeste 11 Sudeste 0 -- -- 98
2021-03-05 00:00:00 4.1 10 Sudeste 12 Sudeste 0 -- -- 97
2021-03-04 23:00:00 4.7 5 Sudeste 13 Sudeste 0 -- -- 97
2021-03-04 22:00:00 4.9 9 Sudeste 11 Sudeste 0 -- -- 95
2021-03-04 21:00:00 5.4 8 Sudeste 11 Sudeste 0 -- -- 93
2021-03-04 20:00:00 6.5 5 Sudeste 9 Sudeste 0 -- -- 90
2021-03-04 19:00:00 8.9 0 Calma 7 Nordeste 0 -- -- 82
2021-03-04 18:00:00 11.6 5 Norte 10 Norte 0 -- -- 69
2021-03-04 17:00:00 12.6 8 Norte 14 Norte 0 -- -- 64
2021-03-04 16:00:00 13.7 7 Norte 13 Norte 0 -- -- 69
2021-03-04 15:00:00 12.9 3 Sudeste 10 Sudeste 0 -- -- 69
2021-03-04 14:00:00 10.8 4 Sudeste 8 Sudeste 0 -- -- 81
2021-03-04 13:00:00 9.4 3 Noroeste 8 Norte 0 -- -- 91
2021-03-04 12:00:00 8.4 4 Norte 11 Norte 0 -- -- 96
2021-03-04 11:00:00 8 8 Norte 11 Norte 0 -- -- 99
2021-03-04 10:00:00 8.3 6 Norte 8 Norte 0 -- -- 99
2021-03-04 09:00:00 7.2 0 Calma 2 Norte 0 -- -- 100
2021-03-04 08:00:00 6.3 2 Oeste 4 Sudeste 0 -- -- 100
2021-03-04 07:00:00 5.9 3 Sudeste 6 Noroeste 0 -- -- 100
2021-03-04 06:00:00 5.2 4 Sudeste 8 Sudeste 0 -- -- 100
2021-03-04 05:00:00 5.7 0 Calma 6 Sudeste 0 -- -- 99
2021-03-04 04:00:00 6.7 0 Calma 3 Sur 0 -- -- 99
2021-03-04 03:00:00 7 0 Calma 7 Sudeste 0 -- -- 98
2021-03-04 02:00:00 6.6 4 Sur 12 Sudeste 0 -- -- 98
2021-03-04 01:00:00 6.4 3 Sudeste 8 Sudeste 0 -- -- 97
2021-03-04 00:00:00 6.5 0 Calma 8 Sudeste 0 -- -- 98
2021-03-03 23:00:00 7.5 3 Sur 8 Sudeste 0 -- -- 96
2021-03-03 22:00:00 8 0 Calma 5 Sudeste 0 -- -- 93
2021-03-03 21:00:00 8.4 4 Sudeste 9 Sudeste 0 -- -- 92
2021-03-03 20:00:00 8.1 7 Sudeste 9 Sudeste 0 -- -- 91
2021-03-03 19:00:00 10.2 4 Sudeste 11 Este 0 -- -- 83
2021-03-03 18:00:00 11.4 7 Sudeste 14 Este 0 -- -- 81
2021-03-03 17:00:00 12.1 8 Este 15 Sudeste 0 -- -- 77
2021-03-03 16:00:00 12.2 5 Este 16 Este 0 -- -- 78
2021-03-03 15:00:00 11.5 5 Este 15 Nordeste 0 -- -- 80
2021-03-03 14:00:00 11.3 6 Nordeste 13 Nordeste 0 -- -- 82
2021-03-03 13:00:00 11.3 9 Norte 13 Norte 0 -- -- 84
2021-03-03 12:00:00 11.3 2 Norte 6 Sudeste 0 -- -- 84
2021-03-03 11:00:00 10.1 2 Este 7 Sudeste 0 -- -- 88
2021-03-03 10:00:00 8.5 3 Sudeste 6 Sudeste 0 -- -- 98
2021-03-03 09:00:00 7.6 2 Sudeste 5 Sudeste 0 -- -- 100
2021-03-03 08:00:00 7.3 4 Sudeste 6 Sudeste 0 -- -- 100
2021-03-03 07:00:00 7.6 4 Sur 6 Sur 0 -- -- 99
2021-03-03 06:00:00 7.8 3 Sudoeste 4 Sudoeste 0 -- -- 99
2021-03-03 05:00:00 8.2 3 Sudeste 8 Sudeste 0 -- -- 97
2021-03-03 04:00:00 8.7 3 Sudeste 9 Sudeste 0 -- -- 96
2021-03-03 03:00:00 8.8 5 Sudeste 9 Este 0 -- -- 96
2021-03-03 02:00:00 8.8 4 Sudeste 9 Sudeste 0 -- -- 96
2021-03-03 01:00:00 9 7 Sudeste 12 Este 0 -- -- 95
2021-03-03 00:00:00 9.1 3 Sudeste 8 Este 0 -- -- 93
2021-03-02 23:00:00 9 3 Sur 15 Sudeste 0 -- -- 93
2021-03-02 22:00:00 9 9 Sudeste 18 Sudeste 0 -- -- 91
2021-03-02 21:00:00 8.9 5 Este 13 Sudeste 0 -- -- 90
2021-03-02 20:00:00 9 5 Sudeste 13 Este 0 -- -- 90
2021-03-02 19:00:00 9.3 5 Este 15 Sudeste 0 -- -- 88
2021-03-02 18:00:00 9.8 10 Este 17 Este 0 -- -- 86
2021-03-02 17:00:00 9.8 9 Este 21 Sudeste 0 -- -- 88
2021-03-02 16:00:00 9.8 11 Este 23 Sudeste 0 -- -- 88
2021-03-02 15:00:00 9.7 16 Este 24 Este 0 -- -- 87
2021-03-02 14:00:00 9.6 13 Este 20 Este 0 -- -- 88
2021-03-02 13:00:00 9.2 12 Este 19 Este 0 -- -- 90
2021-03-02 12:00:00 8.8 9 Este 17 Este 0 -- -- 91
2021-03-02 11:00:00 8.8 9 Este 14 Este 0 -- -- 92
2021-03-02 10:00:00 8.2 5 Sudeste 9 Este 0 -- -- 92
2021-03-02 09:00:00 7.6 4 Sudeste 8 Este 0 -- -- 95
2021-03-02 08:00:00 7 0 Calma 3 Nordeste 0 -- -- 99
2021-03-02 07:00:00 6.9 0 Calma 4 Este 0.2 -- -- 99
2021-03-02 06:00:00 7.2 4 Este 14 Sudeste 0 -- -- 96
2021-03-02 05:00:00 7.4 9 Este 17 Este 0 -- -- 93
2021-03-02 04:00:00 7.4 7 Este 17 Este 0 -- -- 92
2021-03-02 03:00:00 7.5 9 Este 17 Sudeste 0 -- -- 94
2021-03-02 02:00:00 7.7 9 Este 18 Sudeste 0 -- -- 94
2021-03-02 01:00:00 7.7 13 Sudeste 21 Este 0 -- -- 95
2021-03-02 00:00:00 7.8 13 Este 33 Este 0 -- -- 95
2021-03-01 23:00:00 8.2 18 Este 35 Este 0 -- -- 91
2021-03-01 22:00:00 8 14 Este 28 Sudeste 0 -- -- 92
2021-03-01 21:00:00 8 9 Este 20 Sudeste 0 -- -- 92
2021-03-01 20:00:00 8.2 12 Este 31 Este 0 -- -- 91
2021-03-01 19:00:00 8.1 21 Este 33 Este 0 -- -- 90
2021-03-01 18:00:00 8.4 25 Este 42 Este 0 -- -- 90
2021-03-01 17:00:00 8.9 17 Este 32 Este 0 -- -- 90
2021-03-01 16:00:00 8.4 14 Este 28 Este 0 -- -- 90
2021-03-01 15:00:00 8.4 10 Este 30 Nordeste 0 -- -- 93
2021-03-01 14:00:00 8.5 14 Este 25 Este 0 -- -- 95
2021-03-01 13:00:00 7.7 16 Este 27 Este 0 -- -- 96
2021-03-01 12:00:00 8 14 Este 24 Este 0 -- -- 90
2021-03-01 11:00:00 8.4 10 Este 26 Este 0 -- -- 86
2021-03-01 10:00:00 7.5 14 Este 33 Este 0 -- -- 89
2021-03-01 09:00:00 6.9 14 Este 30 Este 0 -- -- 92
2021-03-01 08:00:00 6.6 9 Este 20 Este 0 -- -- 94
2021-03-01 07:00:00 6.5 8 Este 15 Nordeste 0 -- -- 94
2021-03-01 06:00:00 6.8 6 Nordeste 20 Este 0 -- -- 94
2021-03-01 05:00:00 6.7 8 Este 26 Este 0 -- -- 97
2021-03-01 04:00:00 6.8 17 Este 33 Este 0 -- -- 96
2021-03-01 03:00:00 6.6 20 Este 34 Sudeste 0 -- -- 97
2021-03-01 02:00:00 6.1 21 Este 40 Este 0 -- -- 97
2021-03-01 01:00:00 5.8 26 Este 41 Este 0 -- -- 96
2021-03-01 00:00:00 5.8 19 Este 41 Sudeste 0 -- -- 93
2021-02-28 23:00:00 6.5 29 Este 54 Este 0 -- -- 89
2021-02-28 22:00:00 6.7 28 Este 42 Este 0 -- -- 87
2021-02-28 21:00:00 7.3 21 Este 39 Este 0 -- -- 85
2021-02-28 20:00:00 8.3 21 Este 43 Sudeste 0 -- -- 80
2021-02-28 19:00:00 9.6 30 Este 59 Este 0 -- -- 73
2021-02-28 18:00:00 11.2 35 Este 58 Este 0 -- -- 66
2021-02-28 17:00:00 12.1 35 Este 75 Nordeste 0 -- -- 63
2021-02-28 16:00:00 12.6 32 Este 50 Este 0 -- -- 63
2021-02-28 15:00:00 11.7 20 Este 35 Este 0 -- -- 71
2021-02-28 14:00:00 8.7 15 Este 24 Este 0 -- -- 83
2021-02-28 13:00:00 9.1 12 Este 20 Este 0 -- -- 73
2021-02-28 12:00:00 7.7 6 Este 12 Sudeste 0 -- -- 77
2021-02-28 11:00:00 7 7 Este 10 Sudeste 0 -- -- 80
2021-02-28 10:00:00 6.5 0 Calma 4 Sudeste 0 -- -- 81
2021-02-28 09:00:00 5.8 3 Sudeste 6 Sudeste 0 -- -- 83
2021-02-28 08:00:00 5.4 4 Sudeste 10 Sudoeste 0 -- -- 82
2021-02-28 07:00:00 5.3 5 Sudeste 14 Sur 0 -- -- 82
2021-02-28 06:00:00 5.4 5 Sudeste 9 Sudeste 0 -- -- 82
2021-02-28 05:00:00 5 3 Sudeste 11 Sudoeste 0 -- -- 83
2021-02-28 04:00:00 4.4 5 Sudeste 13 Oeste 0 -- -- 84
2021-02-28 03:00:00 5.1 4 Nordeste 27 Oeste 0 -- -- 79
2021-02-28 02:00:00 5.5 16 Oeste 31 Noroeste 0 -- -- 77
2021-02-28 01:00:00 6 19 Oeste 35 Noroeste 0 -- -- 75
2021-02-28 00:00:00 6.2 18 Oeste 35 Oeste 0 -- -- 73
2021-02-27 23:00:00 7.1 25 Oeste 46 Oeste 0 -- -- 70
2021-02-27 22:00:00 7.9 17 Oeste 32 Oeste 0 -- -- 69
2021-02-27 21:00:00 8.6 16 Oeste 28 Oeste 0 -- -- 66
2021-02-27 20:00:00 8.4 8 Noroeste 17 Noroeste 0 -- -- 66
2021-02-27 19:00:00 9.8 8 Noroeste 26 Noroeste 0 -- -- 63
2021-02-27 18:00:00 12.8 15 Noroeste 31 Noroeste 0 -- -- 52
2021-02-27 17:00:00 14.2 20 Noroeste 33 Noroeste 0 -- -- 50
2021-02-27 16:00:00 14.3 24 Noroeste 34 Oeste 0 -- -- 54
2021-02-27 15:00:00 14.2 19 Noroeste 38 Noroeste 0 -- -- 60
2021-02-27 14:00:00 13.3 21 Noroeste 41 Noroeste 0 -- -- 65
2021-02-27 13:00:00 12.9 22 Noroeste 41 Oeste 0 -- -- 66
2021-02-27 12:00:00 11.3 23 Noroeste 38 Oeste 0 -- -- 70
2021-02-27 11:00:00 10.1 25 Noroeste 38 Oeste 0 -- -- 75
2021-02-27 10:00:00 9.3 14 Noroeste 27 Oeste 0 -- -- 78
2021-02-27 09:00:00 8 13 Noroeste 24 Oeste 0 -- -- 83
2021-02-27 08:00:00 6.6 5 Norte 26 Noroeste 0 -- -- 88
2021-02-27 07:00:00 7.1 6 Nordeste 20 Noroeste 0 -- -- 87
2021-02-27 06:00:00 6.9 6 Sudeste 19 Noroeste 0 -- -- 88
2021-02-27 05:00:00 7.3 4 Sudeste 19 Sur 0 -- -- 87
2021-02-27 04:00:00 7.7 7 Oeste 21 Sudoeste 0 -- -- 88
2021-02-27 03:00:00 7.8 10 Oeste 26 Sudoeste 0 -- -- 88
2021-02-27 02:00:00 8.7 14 Oeste 22 Sudoeste 0 -- -- 86
2021-02-27 01:00:00 8.2 5 Oeste 16 Oeste 0 -- -- 88
2021-02-27 00:00:00 7.3 8 Sudeste 13 Sudeste 0 -- -- 90
2021-02-26 23:00:00 8 6 Sudeste 12 Sur 0 -- -- 88
2021-02-26 22:00:00 7.8 6 Sudeste 12 Sur 0 -- -- 90
2021-02-26 21:00:00 7.5 8 Sudeste 11 Sudeste 0 -- -- 91
2021-02-26 20:00:00 8.5 7 Sudeste 11 Sudeste 0 -- -- 89
2021-02-26 19:00:00 10 4 Oeste 9 Norte 0 -- -- 84
2021-02-26 18:00:00 14.3 6 Norte 14 Norte 0 -- -- 65
2021-02-26 17:00:00 14.8 8 Norte 16 Norte 0 -- -- 64
2021-02-26 16:00:00 14.9 8 Norte 14 Norte 0 -- -- 64
2021-02-26 15:00:00 15.2 8 Norte 15 Norte 0 -- -- 63
2021-02-26 14:00:00 14.1 4 Norte 15 Noroeste 0 -- -- 67
2021-02-26 13:00:00 13.3 6 Noroeste 16 Norte 0 -- -- 70
2021-02-26 12:00:00 12.1 10 Norte 14 Norte 0 -- -- 78
2021-02-26 11:00:00 12 4 Oeste 12 Oeste 0 -- -- 80
2021-02-26 10:00:00 10.9 0 Calma 5 Sudeste 0 -- -- 83
2021-02-26 09:00:00 8.9 3 Sudeste 6 Sudeste 0 -- -- 92
2021-02-26 08:00:00 8.2 0 Calma 5 Sudeste 0 -- -- 93
2021-02-26 07:00:00 8 3 Sudeste 5 Sudoeste 0 -- -- 94
2021-02-26 06:00:00 8 3 Este 5 Oeste 0 -- -- 95
2021-02-26 05:00:00 7.9 3 Sudeste 7 Sudeste 0 -- -- 95
2021-02-26 04:00:00 7.1 7 Sudeste 12 Sudeste 0 -- -- 96
2021-02-26 03:00:00 5 10 Sudeste 12 Sudeste 0 -- -- 97
2021-02-26 02:00:00 4.9 6 Sudeste 9 Norte 0 -- -- 97
2021-02-26 01:00:00 5.3 10 Sudeste 12 Sudeste 0 -- -- 96
2021-02-26 00:00:00 5.7 5 Sudeste 12 Sudeste 0 -- -- 97
2021-02-25 23:00:00 5.6 8 Sudeste 12 Sudeste 0 -- -- 96
2021-02-25 22:00:00 5.7 4 Sudeste 12 Sudeste 0 -- -- 96
2021-02-25 21:00:00 6.6 4 Sudeste 12 Sudeste 0 -- -- 94
2021-02-25 20:00:00 7.4 9 Sudeste 12 Sudeste 0 -- -- 92
2021-02-25 19:00:00 9.7 3 Sur 5 Sur 0 -- -- 84
2021-02-25 18:00:00 12.1 3 Sudeste 10 Este 0 -- -- 71
2021-02-25 17:00:00 13.4 4 Nordeste 13 Nordeste 0 -- -- 67
2021-02-25 16:00:00 13.9 7 Nordeste 16 Nordeste 0 -- -- 63
2021-02-25 15:00:00 13.4 8 Norte 19 Este 0 -- -- 67
2021-02-25 14:00:00 11.9 8 Este 19 Este 0 -- -- 70
2021-02-25 13:00:00 11.4 8 Nordeste 16 Nordeste 0 -- -- 75
2021-02-25 12:00:00 8.8 9 Nordeste 20 Nordeste 0 -- -- 86
2021-02-25 11:00:00 8.3 4 Este 10 Este 0 -- -- 87
2021-02-25 10:00:00 6.3 9 Este 20 Este 0 -- -- 99
2021-02-25 09:00:00 6.1 2 Nordeste 9 Nordeste 0 -- -- 100
2021-02-25 08:00:00 6.3 5 Este 10 Este 0 -- -- 100
2021-02-25 07:00:00 6.6 4 Nordeste 8 Nordeste 0 -- -- 100
2021-02-25 06:00:00 6.3 0 Calma 12 Este 0 -- -- 100
2021-02-25 05:00:00 6.3 5 Sudeste 13 Sudeste 0 -- -- 100
2021-02-25 04:00:00 6.5 4 Este 13 Este 0 -- -- 100
2021-02-25 03:00:00 6.5 4 Sur 10 Sudoeste 0 -- -- 100
2021-02-25 02:00:00 6.1 2 Sudoeste 7 Sudeste 0 -- -- 100
2021-02-25 01:00:00 6.2 2 Sudoeste 13 Sudeste 0 -- -- 99
2021-02-25 00:00:00 7.5 7 Sudeste 15 Este 0 -- -- 95
2021-02-24 23:00:00 8.8 9 Sudeste 18 Este 0 -- -- 89
2021-02-24 22:00:00 8.7 5 Sudoeste 19 Sudeste 0 -- -- 89
2021-02-24 21:00:00 10 15 Sudeste 31 Este 0 -- -- 84
2021-02-24 20:00:00 11 18 Este 38 Este 0 -- -- 81
2021-02-24 19:00:00 11.8 13 Este 26 Este 0 -- -- 79
2021-02-24 18:00:00 13.4 15 Este 29 Este 0 -- -- 76
2021-02-24 17:00:00 14.5 15 Este 30 Este 0 -- -- 73
2021-02-24 16:00:00 14.7 17 Este 28 Este 0 -- -- 73
2021-02-24 15:00:00 14 13 Este 29 Este 0 -- -- 76
2021-02-24 14:00:00 12.3 14 Este 24 Este 0 -- -- 83
2021-02-24 13:00:00 11 14 Este 22 Este 0 -- -- 88
2021-02-24 12:00:00 9.6 11 Este 24 Este 0 -- -- 95
2021-02-24 11:00:00 9.8 8 Este 18 Este 0 -- -- 89
2021-02-24 10:00:00 8.1 3 Sudeste 8 Este 0 -- -- 100
2021-02-24 09:00:00 7.5 7 Sudeste 13 Este 0 -- -- 100
2021-02-24 08:00:00 7 4 Sudeste 10 Sur 0 -- -- 100
2021-02-24 07:00:00 6.7 3 Sudeste 9 Sudeste 0 -- -- 99
2021-02-24 06:00:00 5 3 Sudeste 9 Sudeste 0 -- -- 96
2021-02-24 05:00:00 5.4 3 Sudoeste 9 Sudeste 0 -- -- 98
2021-02-24 04:00:00 5.5 0 Calma 9 Sudeste 0 -- -- 94
2021-02-24 03:00:00 6 0 Calma 9 Sudoeste 0 -- -- 98
2021-02-24 02:00:00 7.5 4 Sur 8 Sur 0 -- -- 94
2021-02-24 01:00:00 8.1 5 Sudeste 13 Sur 0 -- -- 91
2021-02-24 00:00:00 8.6 7 Sur 26 Sudeste 0 -- -- 92
2021-02-23 23:00:00 9.7 15 Sudeste 26 Este 0 -- -- 87
2021-02-23 22:00:00 8.7 3 Este 15 Este 0 -- -- 86
2021-02-23 21:00:00 9.2 14 Este 18 Este 0 -- -- 86
2021-02-23 20:00:00 8.7 4 Sudeste 7 Sudeste 0 -- -- 86
2021-02-23 19:00:00 10 0 Calma 16 Este 0 -- -- 80
2021-02-23 18:00:00 12.1 12 Este 19 Este 0 -- -- 69
2021-02-23 17:00:00 12.8 16 Este 25 Este 0 -- -- 65
2021-02-23 16:00:00 13.1 14 Este 28 Este 0 -- -- 64
2021-02-23 15:00:00 12.7 17 Este 26 Este 0 -- -- 68
2021-02-23 14:00:00 12.6 14 Este 26 Sudeste 0 -- -- 66
2021-02-23 13:00:00 12.2 12 Este 23 Este 0 -- -- 66
2021-02-23 12:00:00 11.4 11 Sudeste 22 Este 0 -- -- 68
2021-02-23 11:00:00 10.4 9 Sudeste 17 Sudeste 0 -- -- 68
2021-02-23 10:00:00 8.9 6 Sudeste 10 Sudeste 0 -- -- 76
2021-02-23 09:00:00 4.6 3 Sudeste 14 Sudeste 0 -- -- 95
2021-02-23 08:00:00 2.2 9 Sudeste 13 Sudeste 0 -- -- 96
2021-02-23 07:00:00 2.8 7 Sudeste 11 Sudeste 0 -- -- 96
2021-02-23 06:00:00 4.5 4 Sur 10 Sudoeste 0 -- -- 94
2021-02-23 05:00:00 6 3 Este 7 Sudeste 0 -- -- 95
2021-02-23 04:00:00 6.2 3 Sudeste 7 Sur 0 -- -- 96
2021-02-23 03:00:00 6.1 3 Sur 6 Sudeste 0 -- -- 97
2021-02-23 02:00:00 5.9 3 Sudeste 5 Sudeste 0 -- -- 98
2021-02-23 01:00:00 5.8 0 Calma 9 Oeste 0 -- -- 97
2021-02-23 00:00:00 5.5 3 Oeste 16 Sudoeste 0 -- -- 98
2021-02-22 23:00:00 6.1 9 Oeste 14 Sudoeste 0 -- -- 95
2021-02-22 22:00:00 6.4 8 Noroeste 13 Noroeste 0 -- -- 96
2021-02-22 21:00:00 6.2 7 Noroeste 14 Oeste 0 -- -- 96
2021-02-22 20:00:00 6.3 9 Noroeste 17 Noroeste 0 -- -- 94
2021-02-22 19:00:00 6.3 8 Noroeste 18 Oeste 0 -- -- 93
2021-02-22 18:00:00 6.2 10 Oeste 22 Oeste 0 -- -- 91
2021-02-22 17:00:00 6.4 13 Oeste 26 Oeste 0 -- -- 90
2021-02-22 16:00:00 6.5 14 Noroeste 27 Oeste 0 -- -- 88
2021-02-22 15:00:00 6.3 13 Oeste 31 Oeste 0 -- -- 89
2021-02-22 14:00:00 5.9 19 Noroeste 32 Noroeste 0 -- -- 91
2021-02-22 13:00:00 5.5 21 Oeste 42 Oeste 0 -- -- 93
2021-02-22 12:00:00 4.8 26 Oeste 42 Oeste 0 -- -- 94
2021-02-22 11:00:00 4.7 29 Oeste 44 Noroeste 0 -- -- 95
2021-02-22 10:00:00 5.1 27 Oeste 50 Oeste 0 -- -- 93
2021-02-22 09:00:00 5.1 27 Oeste 45 Oeste 0 -- -- 94
2021-02-22 08:00:00 5.2 25 Oeste 47 Oeste 0 -- -- 94
2021-02-22 07:00:00 6.4 18 Sudoeste 37 Sudoeste 0 -- -- 87
2021-02-22 06:00:00 7 24 Sudoeste 37 Sudoeste 0.6 -- -- 86
2021-02-22 05:00:00 8.7 5 Sudeste 27 Este 3.4 -- -- 96
2021-02-22 04:00:00 9.4 13 Este 26 Este 4.6 -- -- 97
2021-02-22 03:00:00 9.2 8 Sudeste 23 Este 3.8 -- -- 97
2021-02-22 02:00:00 9.9 15 Este 28 Nordeste 0 -- -- 88
2021-02-22 01:00:00 10 6 Este 30 Nordeste 0 -- -- 87
2021-02-22 00:00:00 10.2 14 Este 31 Este 0 -- -- 87
2021-02-21 23:00:00 10.3 13 Este 32 Este 0 -- -- 87
2021-02-21 22:00:00 10.4 19 Este 33 Este 0 -- -- 86
2021-02-21 21:00:00 10.5 18 Este 37 Este 0 -- -- 85
2021-02-21 20:00:00 10.6 19 Este 44 Este 0 -- -- 84
2021-02-21 19:00:00 10.6 27 Este 49 Este 0 -- -- 83
2021-02-21 18:00:00 11 27 Este 52 Este 0 -- -- 81
2021-02-21 17:00:00 11.5 26 Este 53 Este 0 -- -- 78
2021-02-21 16:00:00 11.4 32 Este 54 Este 0 -- -- 79
2021-02-21 15:00:00 11.6 33 Este 53 Este 0 -- -- 78
2021-02-21 14:00:00 11.2 28 Este 52 Este 0 -- -- 79
2021-02-21 13:00:00 10.8 27 Este 52 Este 0 -- -- 79
2021-02-21 12:00:00 10.2 36 Este 59 Este 0 -- -- 81
2021-02-21 11:00:00 9.3 36 Este 54 Este 0 -- -- 85
2021-02-21 10:00:00 7.6 28 Este 57 Este 0 -- -- 92
2021-02-21 09:00:00 7.3 33 Este 68 Este 0 -- -- 94
2021-02-21 08:00:00 6.9 30 Este 52 Este 0 -- -- 97
2021-02-21 07:00:00 7 28 Este 48 Este 0 -- -- 95
2021-02-21 06:00:00 6.7 15 Este 32 Este 0 -- -- 95
2021-02-21 05:00:00 6.7 14 Este 37 Este 0 -- -- 94
2021-02-21 04:00:00 6.6 13 Este 30 Este 0 -- -- 94
2021-02-21 03:00:00 6.7 13 Este 31 Este 0 -- -- 91
2021-02-21 02:00:00 6.9 9 Este 21 Este 0 -- -- 89
2021-02-21 01:00:00 6.9 8 Nordeste 23 Este 0 -- -- 90
2021-02-21 00:00:00 7.2 10 Este 32 Este 0 -- -- 88
2021-02-20 23:00:00 7.5 4 Oeste 12 Nordeste 0 -- -- 84
2021-02-20 22:00:00 8.3 3 Oeste 13 Sur 0 -- -- 78
2021-02-20 21:00:00 9.5 5 Sur 14 Sur 0 -- -- 74
2021-02-20 20:00:00 11.3 4 Sur 10 Sudoeste 0 -- -- 64
2021-02-20 19:00:00 11.7 3 Oeste 20 Este 0 -- -- 65
2021-02-20 18:00:00 14.3 15 Este 30 Este 0 -- -- 58
2021-02-20 17:00:00 15.9 19 Este 33 Este 0 -- -- 55
2021-02-20 16:00:00 14.9 8 Sudeste 27 Este 0 -- -- 65
2021-02-20 15:00:00 13.9 12 Sudeste 27 Sudeste 0 -- -- 67
2021-02-20 14:00:00 13.3 10 Sudeste 28 Sudeste 0 -- -- 68
2021-02-20 13:00:00 10.6 8 Sudeste 30 Este 0 -- -- 76
2021-02-20 12:00:00 8.4 10 Sudeste 17 Sudeste 0 -- -- 82
2021-02-20 11:00:00 7.4 10 Sudeste 18 Sudeste 0 -- -- 85
2021-02-20 10:00:00 6.5 12 Este 19 Este 0 -- -- 86
2021-02-20 09:00:00 7 7 Este 15 Sur 0 -- -- 85
2021-02-20 08:00:00 6.1 8 Sur 17 Sudoeste 0 -- -- 86
2021-02-20 07:00:00 5.5 10 Sur 21 Sur 0 -- -- 93
2021-02-20 06:00:00 5.7 12 Sur 21 Sur 0 -- -- 94
2021-02-20 05:00:00 7.3 10 Sur 20 Sudeste 0 -- -- 78
2021-02-20 04:00:00 10 10 Sudeste 15 Sudeste 0 -- -- 54
2021-02-20 03:00:00 10.5 5 Sudeste 22 Sudeste 0 -- -- 50
2021-02-20 02:00:00 11.9 12 Sudeste 19 Sudeste 0 -- -- 44
2021-02-20 01:00:00 11.5 10 Sur 20 Sur 0 -- -- 48
2021-02-20 00:00:00 10.5 4 Sudeste 12 Sur 0 -- -- 65
2021-02-19 23:00:00 10.6 7 Sur 15 Sur 0 -- -- 64
2021-02-19 22:00:00 10.6 8 Sur 14 Sur 0 -- -- 62
2021-02-19 21:00:00 11.1 7 Sur 12 Sur 0 -- -- 67
2021-02-19 20:00:00 13.4 8 Este 17 Este 0 -- -- 57
2021-02-19 19:00:00 13.5 6 Sudoeste 14 Este 0 -- -- 50
2021-02-19 18:00:00 15.4 12 Este 24 Este 0 -- -- 45
2021-02-19 17:00:00 16.7 14 Este 30 Este 0 -- -- 42
2021-02-19 16:00:00 17.3 15 Este 29 Este 0 -- -- 41
2021-02-19 15:00:00 16.7 13 Este 29 Este 0 -- -- 45
2021-02-19 14:00:00 16.4 19 Este 32 Este 0 -- -- 43
2021-02-19 13:00:00 17 14 Este 22 Este 0 -- -- 41
2021-02-19 12:00:00 17.3 6 Norte 16 Este 0 -- -- 45
2021-02-19 11:00:00 16.5 6 Este 12 Sudeste 0 -- -- 39
2021-02-19 10:00:00 15.1 6 Sur 21 Sur 0 -- -- 45
2021-02-19 09:00:00 11.7 10 Sudoeste 17 Sudoeste 0 -- -- 49
2021-02-19 08:00:00 8.1 3 Sudeste 24 Sudoeste 0 -- -- 61
2021-02-19 07:00:00 10.6 14 Sudoeste 24 Sudoeste 0 -- -- 51
2021-02-19 06:00:00 10.8 13 Sudoeste 20 Sudoeste 0 -- -- 51
2021-02-19 05:00:00 10.4 8 Sudoeste 21 Sudoeste 0 -- -- 53
2021-02-19 04:00:00 10.6 10 Sudoeste 27 Sudoeste 0 -- -- 53
2021-02-19 03:00:00 12 15 Sudoeste 31 Sudoeste 0 -- -- 47
2021-02-19 02:00:00 12.5 19 Sudoeste 35 Sudoeste 0 -- -- 44
2021-02-19 01:00:00 12.6 19 Sudoeste 35 Sudoeste 0 -- -- 43
2021-02-19 00:00:00 13.3 17 Sudoeste 37 Sudoeste 0 -- -- 37
2021-02-18 23:00:00 13.6 17 Sudoeste 35 Sudoeste 0 -- -- 36
2021-02-18 22:00:00 12.6 13 Sudoeste 21 Sudoeste 0 -- -- 42
2021-02-18 21:00:00 14.2 12 Sudoeste 21 Sudoeste 0 -- -- 38
2021-02-18 20:00:00 12.6 10 Sudoeste 13 Sudoeste 0 -- -- 44
2021-02-18 19:00:00 12.9 8 Sur 15 Sudoeste 0 -- -- 46
2021-02-18 18:00:00 16.8 7 Sudoeste 21 Sudeste 0 -- -- 34
2021-02-18 17:00:00 16.4 14 Este 24 Este 0 -- -- 46
2021-02-18 16:00:00 17.3 11 Este 32 Oeste 0 -- -- 44
2021-02-18 15:00:00 19.7 6 Noroeste 26 Oeste 0 -- -- 36
2021-02-18 14:00:00 18.1 5 Norte 18 Norte 0 -- -- 49
2021-02-18 13:00:00 17.8 7 Sudeste 15 Este 0 -- -- 43
2021-02-18 12:00:00 15.6 3 Norte 15 Norte 0 -- -- 53
2021-02-18 11:00:00 15 4 Este 8 Norte 0 -- -- 54
2021-02-18 10:00:00 13.6 0 Calma 7 Sudeste 0 -- -- 53
2021-02-18 09:00:00 7.8 4 Sudeste 10 Sudeste 0 -- -- 68
2021-02-18 08:00:00 3.8 6 Sudeste 14 Sudeste 0 -- -- 77
2021-02-18 07:00:00 4.3 0 Calma 16 Sudeste 0 -- -- 76
2021-02-18 06:00:00 5.3 13 Sudeste 17 Sudeste 0 -- -- 73
2021-02-18 05:00:00 5.5 2 Norte 12 Sudeste 0 -- -- 75
2021-02-18 04:00:00 5.6 5 Este 11 Sudeste 0 -- -- 78
2021-02-18 03:00:00 6.2 5 Noroeste 7 Oeste 0 -- -- 85
2021-02-18 02:00:00 8.2 4 Sudeste 10 Sudoeste 0 -- -- 74
2021-02-18 01:00:00 9.4 2 Este 12 Sudoeste 0 -- -- 76
2021-02-18 00:00:00 11 8 Sur 14 Sur 0 -- -- 71
2021-02-17 23:00:00 11.4 9 Sur 16 Sur 0 -- -- 71
2021-02-17 22:00:00 12.6 12 Sur 22 Sudoeste 0 -- -- 66
2021-02-17 21:00:00 11.8 10 Sudoeste 20 Sudoeste 0 -- -- 70
2021-02-17 20:00:00 12.2 12 Sur 20 Sur 0 -- -- 69
2021-02-17 19:00:00 11.7 8 Sur 17 Sudeste 0 -- -- 71
2021-02-17 18:00:00 13.4 8 Sudeste 17 Este 0 -- -- 64
2021-02-17 17:00:00 14.2 12 Este 21 Este 0 -- -- 58
2021-02-17 16:00:00 14 14 Este 21 Sudeste 0 -- -- 62
2021-02-17 15:00:00 14.6 14 Este 19 Sudeste 0 -- -- 65
2021-02-17 14:00:00 14.5 8 Este 14 Este 0 -- -- 64
2021-02-17 13:00:00 14.8 4 Nordeste 8 Norte 0 -- -- 62
2021-02-17 12:00:00 13.7 3 Norte 8 Norte 0 -- -- 62
2021-02-17 11:00:00 12.4 3 Norte 6 Norte 0 -- -- 68
2021-02-17 10:00:00 11.3 0 Calma 4 Oeste 0 -- -- 69
2021-02-17 09:00:00 9.7 3 Oeste 15 Sudeste 0 -- -- 74
2021-02-17 08:00:00 9.6 5 Sudeste 21 Sudoeste 0 -- -- 71
2021-02-17 07:00:00 11.8 13 Sudoeste 24 Sudoeste 0 -- -- 62
2021-02-17 06:00:00 11.8 17 Sudoeste 26 Sudoeste 0 -- -- 64
2021-02-17 05:00:00 11.1 14 Sudoeste 26 Sudoeste 0 -- -- 65
2021-02-17 04:00:00 11.7 19 Sudoeste 27 Sudoeste 0 -- -- 63
2021-02-17 03:00:00 12 14 Sudoeste 19 Sudoeste 0 -- -- 61
2021-02-17 02:00:00 11.9 13 Sudoeste 21 Sudoeste 0 -- -- 63
2021-02-17 01:00:00 11.5 12 Sudoeste 25 Sudoeste 0 -- -- 66
2021-02-17 00:00:00 12.3 19 Sudoeste 26 Sudoeste 0 -- -- 64
2021-02-16 23:00:00 9 7 Sudeste 9 Sudeste 0 -- -- 88
2021-02-16 22:00:00 9.1 4 Sur 10 Sudeste 0 -- -- 87
2021-02-16 21:00:00 8.6 7 Sudeste 12 Sudeste 0 -- -- 89
2021-02-16 20:00:00 8.9 6 Sur 12 Sur 0 -- -- 88
2021-02-16 19:00:00 9.8 0 Calma 6 Sur 0 -- -- 83
2021-02-16 18:00:00 11.5 3 Sudeste 14 Sudeste 0 -- -- 77
2021-02-16 17:00:00 12.7 5 Sudeste 16 Sudeste 0 -- -- 71
2021-02-16 16:00:00 12.4 10 Sudeste 19 Este 0 -- -- 70
2021-02-16 15:00:00 12.6 11 Este 19 Este 0 -- -- 71
2021-02-16 14:00:00 11.8 11 Sudeste 23 Este 0 -- -- 73
2021-02-16 13:00:00 10.6 12 Sudeste 19 Sudeste 0 -- -- 79
2021-02-16 12:00:00 8.8 10 Sudeste 19 Este 0 -- -- 87
2021-02-16 11:00:00 7.8 7 Este 13 Este 0 -- -- 100
2021-02-16 10:00:00 5.7 9 Sudeste 15 Sudeste 0 -- -- 100
2021-02-16 09:00:00 5.1 6 Este 14 Este 0 -- -- 100
2021-02-16 08:00:00 5.1 8 Este 15 Este 0 -- -- 100
2021-02-16 07:00:00 5.9 8 Este 15 Sudeste 0 -- -- 100
2021-02-16 06:00:00 6 8 Este 15 Este 0 -- -- 100
2021-02-16 05:00:00 6.1 6 Este 16 Este 0 -- -- 100
2021-02-16 04:00:00 6.2 8 Este 13 Este 0 -- -- 100
2021-02-16 03:00:00 6.3 8 Este 13 Este 0 -- -- 100
2021-02-16 02:00:00 6.3 11 Este 17 Sudeste 0 -- -- 100
2021-02-16 01:00:00 6.3 8 Sudeste 15 Sudeste 0 -- -- 100
2021-02-16 00:00:00 6.5 10 Sudeste 21 Este 0 -- -- 100
2021-02-15 23:00:00 6.8 13 Este 20 Sudeste 0 -- -- 99
2021-02-15 22:00:00 7.4 10 Este 16 Este 0 -- -- 96
2021-02-15 21:00:00 7.9 10 Este 21 Nordeste 0 -- -- 93
2021-02-15 20:00:00 8.7 14 Este 26 Este 0 -- -- 89
2021-02-15 19:00:00 9.5 9 Este 18 Este 0 -- -- 86
2021-02-15 18:00:00 9.3 12 Este 23 Este 0 -- -- 85
2021-02-15 17:00:00 10.5 11 Este 23 Este 0 -- -- 79
2021-02-15 16:00:00 9.9 12 Este 25 Este 0 -- -- 80
2021-02-15 15:00:00 8.7 9 Este 21 Nordeste 0 -- -- 83
2021-02-15 14:00:00 7.2 9 Este 22 Este 0 -- -- 91
2021-02-15 13:00:00 6.4 9 Este 14 Nordeste 0 -- -- 99
2021-02-15 12:00:00 5.7 6 Este 13 Este 0 -- -- 100
2021-02-15 11:00:00 5 5 Sudeste 12 Este 0 -- -- 100
2021-02-15 10:00:00 4.7 4 Este 12 Este 0 -- -- 100
2021-02-15 09:00:00 4.6 6 Este 15 Este 0 -- -- 100
2021-02-15 08:00:00 4.6 9 Este 17 Este 0 -- -- 100
2021-02-15 07:00:00 4.7 8 Sudeste 17 Este 0 -- -- 100
2021-02-15 06:00:00 4.8 9 Este 19 Este 0 -- -- 100
2021-02-15 05:00:00 4.9 7 Este 18 Este 0 -- -- 99
2021-02-15 04:00:00 4.9 12 Este 18 Este 0 -- -- 98
2021-02-15 03:00:00 5 6 Este 18 Este 0 -- -- 97
2021-02-15 02:00:00 5 9 Este 19 Este 0 -- -- 97
2021-02-15 01:00:00 5.3 9 Este 22 Este 0 -- -- 96
2021-02-15 00:00:00 5.4 10 Este 24 Sudeste 0 -- -- 96
2021-02-14 23:00:00 5.8 12 Sudeste 22 Sudeste 0 -- -- 94
2021-02-14 22:00:00 6 5 Este 24 Nordeste 0 -- -- 94
2021-02-14 21:00:00 6.4 8 Este 19 Este 0 -- -- 91
2021-02-14 20:00:00 7.1 10 Este 23 Sudeste 0 -- -- 89
2021-02-14 19:00:00 8.3 9 Este 28 Este 0 -- -- 86
2021-02-14 18:00:00 9.6 15 Este 26 Este 0 -- -- 81
2021-02-14 17:00:00 10.5 15 Este 32 Este 0 -- -- 79
2021-02-14 16:00:00 11.2 20 Este 36 Este 0 -- -- 74
2021-02-14 15:00:00 11.8 15 Este 28 Este 0 -- -- 71
2021-02-14 14:00:00 12 17 Este 25 Sudeste 0 -- -- 65
2021-02-14 13:00:00 11.3 14 Este 23 Este 0 -- -- 65
2021-02-14 12:00:00 10 13 Este 19 Este 0 -- -- 71
2021-02-14 11:00:00 10.2 10 Este 18 Este 0 -- -- 70
2021-02-14 10:00:00 8.9 0 Calma 6 Sudeste 0 -- -- 75
2021-02-14 09:00:00 3.7 0 Calma 14 Sudeste 0 -- -- 92
2021-02-14 08:00:00 1.5 5 Sur 12 Sudeste 0 -- -- 93
2021-02-14 07:00:00 1.6 9 Sudeste 12 Sudeste 0 -- -- 94
2021-02-14 06:00:00 4.8 3 Noroeste 23 Oeste 0 -- -- 86
2021-02-14 05:00:00 6.5 10 Oeste 17 Oeste 0 -- -- 81
2021-02-14 04:00:00 7.5 14 Oeste 26 Oeste 0 -- -- 76
2021-02-14 03:00:00 7 13 Oeste 22 Oeste 0 -- -- 77
2021-02-14 02:00:00 6.9 4 Sudeste 34 Oeste 0 -- -- 76
2021-02-14 01:00:00 9.1 26 Oeste 41 Noroeste 0 -- -- 67
2021-02-14 00:00:00 8.4 12 Oeste 27 Oeste 0 -- -- 69
2021-02-13 23:00:00 8.9 12 Oeste 37 Oeste 0 -- -- 66
2021-02-13 22:00:00 9 23 Oeste 42 Oeste 0 -- -- 68
2021-02-13 21:00:00 8.8 18 Oeste 36 Noroeste 0 -- -- 71
2021-02-13 20:00:00 9.1 14 Oeste 40 Oeste 0 -- -- 73
2021-02-13 19:00:00 10.3 28 Oeste 40 Oeste 0 -- -- 65
2021-02-13 18:00:00 10.5 21 Oeste 32 Oeste 0 -- -- 68
2021-02-13 17:00:00 10.9 10 Noroeste 28 Noroeste 0 -- -- 68
2021-02-13 16:00:00 10.9 23 Noroeste 34 Noroeste 0 -- -- 67
2021-02-13 15:00:00 12.5 18 Oeste 28 Oeste 0 -- -- 63
2021-02-13 14:00:00 12.7 15 Oeste 39 Oeste 0 -- -- 60
2021-02-13 13:00:00 13.5 23 Oeste 39 Oeste 0 -- -- 58
2021-02-13 08:00:00 -- -- -- -- -- -- -- -- --
2021-02-13 07:00:00 7.3 22 Oeste 54 Oeste 0 -- -- 74
2021-02-13 06:00:00 7.4 23 Oeste 58 Oeste 0 -- -- 75
2021-02-13 05:00:00 8.3 39 Oeste 61 Oeste 0 -- -- 74
2021-02-13 04:00:00 7.9 33 Oeste 64 Oeste 0 -- -- 77
2021-02-13 03:00:00 7.8 27 Oeste 52 Oeste 0 -- -- 78
2021-02-13 02:00:00 7.9 26 Oeste 46 Oeste 0 -- -- 79
2021-02-13 01:00:00 8.9 28 Oeste 49 Oeste 0 -- -- 75
2021-02-13 00:00:00 9.3 22 Oeste 35 Oeste 0 -- -- 75
2021-02-12 23:00:00 9.2 18 Oeste 48 Oeste 0 -- -- 76
2021-02-12 22:00:00 9.9 26 Oeste 57 Oeste 0 -- -- 73
2021-02-12 21:00:00 10.3 35 Oeste 54 Noroeste 0 -- -- 73
2021-02-12 20:00:00 10.4 37 Oeste 67 Oeste 0 -- -- 75
2021-02-12 19:00:00 10.6 43 Oeste 65 Noroeste 0 -- -- 77
2021-02-12 18:00:00 11.2 40 Oeste 60 Noroeste 0 -- -- 76
2021-02-12 17:00:00 11.2 20 Oeste 45 Noroeste 0 -- -- 79
2021-02-12 16:00:00 10.7 30 Oeste 47 Oeste 0.2 -- -- 82
2021-02-12 15:00:00 9.9 16 Oeste 29 Oeste 0.8 -- -- 92
2021-02-12 14:00:00 9.8 19 Oeste 42 Oeste 0.4 -- -- 91
2021-02-12 13:00:00 11.8 20 Oeste 44 Oeste 0 -- -- 77
2021-02-12 12:00:00 11.1 19 Oeste 39 Sudoeste 1.4 -- -- 82
2021-02-12 11:00:00 11.3 16 Sudoeste 36 Sudoeste 0 -- -- 81
2021-02-12 10:00:00 11.1 13 Sudoeste 27 Oeste 0.2 -- -- 86
2021-02-12 09:00:00 11.4 14 Sudoeste 39 Sudoeste 0 -- -- 84
2021-02-12 08:00:00 11.6 8 Sudoeste 22 Sudoeste 0 -- -- 76
2021-02-12 07:00:00 11 9 Sudoeste 15 Sur 0 -- -- 80
2021-02-12 06:00:00 11 6 Sudoeste 15 Sur 0 -- -- 81
2021-02-12 05:00:00 9.7 7 Sur 18 Sur 0 -- -- 89
2021-02-12 04:00:00 8.2 3 Noroeste 12 Sudeste 0 -- -- 90
2021-02-12 03:00:00 11.4 5 Sur 25 Sudoeste 0 -- -- 79
2021-02-12 02:00:00 13.3 17 Sudoeste 30 Sudoeste 0 -- -- 72
2021-02-12 01:00:00 12.9 13 Sudoeste 26 Sudoeste 0 -- -- 73
2021-02-12 00:00:00 12.2 8 Sudoeste 23 Sudoeste 0 -- -- 74
2021-02-11 23:00:00 12.7 18 Sudoeste 28 Sudoeste 0 -- -- 71
2021-02-11 22:00:00 10.9 2 Sudeste 22 Sudoeste 0 -- -- 75
2021-02-11 21:00:00 12.5 4 Sudoeste 22 Sudoeste 0 -- -- 70
2021-02-11 20:00:00 13.8 10 Oeste 28 Oeste 0 -- -- 66
2021-02-11 19:00:00 14.2 19 Oeste 27 Sudoeste 0 -- -- 65
2021-02-11 18:00:00 15.1 14 Oeste 24 Sudoeste 0 -- -- 63
2021-02-11 17:00:00 15.7 19 Oeste 35 Oeste 0 -- -- 61
2021-02-11 16:00:00 16.5 22 Oeste 48 Sudoeste 0 -- -- 57
2021-02-11 15:00:00 16.3 31 Oeste 52 Oeste 0 -- -- 57
2021-02-11 14:00:00 16 31 Oeste 50 Oeste 0 -- -- 58
2021-02-11 13:00:00 15.1 35 Oeste 61 Sudoeste 0 -- -- 61
2021-02-11 12:00:00 14.3 33 Oeste 53 Oeste 0 -- -- 64
2021-02-11 11:00:00 13 28 Oeste 50 Oeste 0 -- -- 65
2021-02-11 10:00:00 11.4 23 Oeste 43 Oeste 0 -- -- 65
2021-02-11 09:00:00 10 22 Sudoeste 42 Oeste 0 -- -- 63
2021-02-11 08:00:00 9.2 21 Oeste 35 Sudoeste 0 -- -- 62
2021-02-11 07:00:00 9 18 Oeste 39 Oeste 0 -- -- 62
2021-02-11 06:00:00 9 23 Oeste 37 Sudoeste 0 -- -- 61
2021-02-11 05:00:00 8.5 11 Sudoeste 31 Sudoeste 0 -- -- 63
2021-02-11 04:00:00 8.7 18 Sudoeste 38 Sudoeste 0 -- -- 59
2021-02-11 03:00:00 9.1 22 Oeste 44 Sudoeste 0 -- -- 59
2021-02-11 02:00:00 6.2 9 Sudoeste 19 Sudoeste 0 -- -- 73
2021-02-11 01:00:00 4.2 3 Sudoeste 14 Sudeste 0 -- -- 81
2021-02-11 00:00:00 4 3 Este 15 Sudoeste 0 -- -- 81
2021-02-10 23:00:00 5.5 11 Oeste 19 Oeste 0 -- -- 75
2021-02-10 22:00:00 4.6 7 Oeste 15 Oeste 0 -- -- 79
2021-02-10 21:00:00 6 9 Oeste 17 Oeste 0 -- -- 75
2021-02-10 20:00:00 7.3 2 Noroeste 16 Sudoeste 0 -- -- 74
2021-02-10 19:00:00 8.6 7 Oeste 12 Oeste 0 -- -- 73
2021-02-10 18:00:00 9.1 9 Noroeste 21 Noroeste 0 -- -- 69
2021-02-10 17:00:00 11.1 14 Noroeste 28 Oeste 0 -- -- 59
2021-02-10 16:00:00 12.3 21 Noroeste 40 Noroeste 0 -- -- 56
2021-02-10 15:00:00 12.3 20 Oeste 33 Oeste 0 -- -- 55
2021-02-10 14:00:00 11.5 26 Oeste 34 Oeste 0 -- -- 59
2021-02-10 13:00:00 10.5 27 Noroeste 41 Noroeste 0 -- -- 63
2021-02-10 12:00:00 9.4 28 Oeste 41 Oeste 0 -- -- 66
2021-02-10 11:00:00 8.7 29 Oeste 44 Oeste 0 -- -- 75
2021-02-10 10:00:00 8.2 27 Oeste 49 Sudoeste 0 -- -- 71
2021-02-10 09:00:00 6.4 29 Oeste 45 Sudoeste 0.2 -- -- 78
2021-02-10 08:00:00 5.7 22 Sudoeste 44 Oeste 0 -- -- 82
2021-02-10 07:00:00 5.1 12 Oeste 28 Sudoeste 1.6 -- -- 88
2021-02-10 06:00:00 6.5 9 Sudoeste 20 Sudoeste 0.2 -- -- 87
2021-02-10 05:00:00 6.7 13 Sudoeste 21 Sudoeste 0 -- -- 83
2021-02-10 04:00:00 5.5 10 Oeste 23 Sudoeste 1.6 -- -- 89
2021-02-10 03:00:00 5.7 10 Sudoeste 13 Sudoeste 1 -- -- 89
2021-02-10 02:00:00 4.6 4 Sudeste 10 Sur 0 -- -- 89
2021-02-10 01:00:00 4.6 4 Sur 12 Sur 0 -- -- 88
2021-02-10 00:00:00 5.8 9 Sudoeste 22 Sudoeste 0.2 -- -- 82
2021-02-09 23:00:00 6.6 14 Sudoeste 26 Oeste 0.2 -- -- 85
2021-02-09 22:00:00 6.7 9 Oeste 26 Sudoeste 0 -- -- 81
2021-02-09 21:00:00 8.1 15 Sudoeste 37 Sudoeste 0 -- -- 70
2021-02-09 20:00:00 8.2 16 Sudoeste 36 Sudoeste 0 -- -- 71
2021-02-09 19:00:00 8.3 19 Oeste 44 Sudoeste 0 -- -- 71
2021-02-09 18:00:00 9.6 25 Sudoeste 51 Oeste 0 -- -- 66
2021-02-09 17:00:00 11.2 30 Sudoeste 55 Sudoeste 0 -- -- 70
2021-02-09 16:00:00 13.2 20 Sudoeste 37 Sudoeste 0 -- -- 56
2021-02-09 15:00:00 11.4 7 Sudeste 13 Sudeste 0 -- -- 64
2021-02-09 14:00:00 10.2 10 Este 29 Este 0 -- -- 65
2021-02-09 13:00:00 9.1 18 Sudeste 31 Sudeste 0 -- -- 68
2021-02-09 12:00:00 10.6 18 Este 31 Sur 0 -- -- 64
2021-02-09 11:00:00 10.2 22 Sudoeste 41 Sur 0 -- -- 63
2021-02-09 10:00:00 9 14 Sudoeste 36 Sudoeste 0 -- -- 65
2021-02-09 09:00:00 8.2 28 Sudoeste 47 Sur 0 -- -- 66
2021-02-09 08:00:00 7.9 9 Sur 38 Sudoeste 0 -- -- 69
2021-02-09 07:00:00 8.8 17 Sudoeste 36 Sudoeste 0 -- -- 67
2021-02-09 06:00:00 8.7 14 Oeste 31 Oeste 0 -- -- 69
2021-02-09 05:00:00 8.2 12 Sudoeste 31 Oeste 0 -- -- 72
2021-02-09 04:00:00 8.4 13 Sudoeste 39 Oeste 0 -- -- 72
2021-02-09 03:00:00 8.3 13 Oeste 33 Oeste 0 -- -- 72
2021-02-09 02:00:00 8.5 19 Oeste 36 Oeste 0 -- -- 70
2021-02-09 01:00:00 8.6 21 Oeste 38 Sudoeste 0 -- -- 70
2021-02-09 00:00:00 8.6 20 Oeste 44 Sudoeste 0 -- -- 69
2021-02-08 23:00:00 8.5 23 Oeste 40 Sudoeste 0 -- -- 68
2021-02-08 22:00:00 8.5 19 Oeste 39 Sudoeste 0 -- -- 67
2021-02-08 21:00:00 8.6 20 Oeste 43 Oeste 0 -- -- 68
2021-02-08 20:00:00 9.1 19 Oeste 46 Sudoeste 0 -- -- 65
2021-02-08 19:00:00 9.7 24 Oeste 42 Oeste 0 -- -- 61
2021-02-08 18:00:00 10.2 28 Oeste 50 Oeste 0 -- -- 60
2021-02-08 17:00:00 10.3 32 Oeste 68 Sudoeste 0 -- -- 59
2021-02-08 16:00:00 11.3 24 Oeste 53 Sudoeste 0 -- -- 57
2021-02-08 15:00:00 10 30 Oeste 64 Oeste 0 -- -- 61
2021-02-08 14:00:00 12 35 Oeste 56 Oeste 0 -- -- 55
2021-02-08 13:00:00 11.3 36 Oeste 64 Sudoeste 0 -- -- 58
2021-02-08 12:00:00 10.5 30 Oeste 53 Sudoeste 0 -- -- 65
2021-02-08 11:00:00 7.8 15 Sudoeste 30 Sudoeste 0.4 -- -- 81
2021-02-08 10:00:00 8.5 22 Sudoeste 40 Sudoeste 0 -- -- 70
2021-02-08 09:00:00 8.4 24 Sudoeste 44 Sudoeste 0 -- -- 71
2021-02-08 08:00:00 8.2 16 Sudoeste 33 Sudoeste 0 -- -- 74
2021-02-08 07:00:00 8.2 15 Sudoeste 26 Sudoeste 0 -- -- 72
2021-02-08 06:00:00 7.6 6 Sudoeste 26 Oeste 0 -- -- 75
2021-02-08 05:00:00 8.1 15 Oeste 36 Oeste 0 -- -- 73
2021-02-08 04:00:00 7.9 16 Oeste 30 Sudoeste 0 -- -- 76
2021-02-08 03:00:00 8.1 21 Sudoeste 40 Sudoeste 0 -- -- 74
2021-02-08 02:00:00 7.5 26 Oeste 37 Oeste 0 -- -- 77
2021-02-08 01:00:00 7.2 21 Oeste 42 Oeste 0 -- -- 77
2021-02-08 00:00:00 7.1 23 Oeste 43 Oeste 0 -- -- 78
2021-02-07 23:00:00 7 17 Oeste 32 Oeste 0 -- -- 78
2021-02-07 22:00:00 7.6 21 Oeste 44 Oeste 0 -- -- 71
2021-02-07 21:00:00 7.7 22 Oeste 37 Oeste 0 -- -- 71
2021-02-07 20:00:00 4.2 5 Sudeste 9 Sur 0 -- -- 82
2021-02-07 19:00:00 5.1 5 Oeste 8 Oeste 0 -- -- 76
2021-02-07 18:00:00 6.7 5 Oeste 13 Noroeste 0 -- -- 70
2021-02-07 17:00:00 9.1 10 Noroeste 24 Noroeste 0 -- -- 57
2021-02-07 16:00:00 8.3 18 Noroeste 31 Noroeste 0 -- -- 61
2021-02-07 15:00:00 8.9 22 Oeste 41 Oeste 0 -- -- 58
2021-02-07 14:00:00 9.2 31 Oeste 47 Oeste 0 -- -- 58
2021-02-07 13:00:00 8.6 32 Noroeste 51 Oeste 0 -- -- 57
2021-02-07 12:00:00 7 36 Oeste 58 Oeste 0 -- -- 62
2021-02-07 11:00:00 6.7 32 Oeste 58 Noroeste 0 -- -- 62
2021-02-07 10:00:00 5.3 30 Oeste 58 Oeste 0 -- -- 67
2021-02-07 09:00:00 3.7 22 Oeste 55 Oeste 0 -- -- 71
2021-02-07 08:00:00 3.6 32 Oeste 52 Oeste 0 -- -- 70
2021-02-07 07:00:00 3.2 23 Oeste 60 Oeste 0 -- -- 73
2021-02-07 06:00:00 3.6 30 Oeste 46 Oeste 0 -- -- 74
2021-02-07 05:00:00 3.9 34 Oeste 49 Oeste 0 -- -- 74
2021-02-07 04:00:00 4.3 28 Noroeste 49 Oeste 0 -- -- 78
2021-02-07 03:00:00 4.7 31 Oeste 51 Oeste 0 -- -- 78
2021-02-07 02:00:00 5.1 37 Oeste 55 Oeste 0 -- -- 79
2021-02-07 01:00:00 5.2 35 Oeste 59 Oeste 0 -- -- 83
2021-02-07 00:00:00 5.7 42 Oeste 60 Oeste 0 -- -- 83
2021-02-06 23:00:00 6 41 Oeste 63 Oeste 0 -- -- 82
2021-02-06 22:00:00 6.1 31 Oeste 56 Oeste 0 -- -- 82
2021-02-06 21:00:00 6.3 39 Oeste 62 Oeste 0 -- -- 85
2021-02-06 20:00:00 6.5 27 Oeste 47 Noroeste 0 -- -- 86
2021-02-06 19:00:00 6.8 23 Oeste 37 Oeste 0 -- -- 88
2021-02-06 18:00:00 7.1 22 Noroeste 40 Noroeste 0 -- -- 91
2021-02-06 17:00:00 7.8 33 Noroeste 60 Oeste 1.6 -- -- 96
2021-02-06 16:00:00 9.8 35 Noroeste 62 Noroeste 0 -- -- 82
2021-02-06 15:00:00 13.8 15 Oeste 23 Oeste 0 -- -- 56
2021-02-06 14:00:00 16 9 Sudoeste 24 Sur 0 -- -- 53
2021-02-06 13:00:00 13.3 12 Sudoeste 30 Sur 0 -- -- 58
2021-02-06 12:00:00 13.3 16 Sudoeste 28 Sudoeste 0.2 -- -- 59
2021-02-06 11:00:00 11.1 9 Sudoeste 17 Sudoeste 0 -- -- 73
2021-02-06 10:00:00 9.4 7 Sudoeste 14 Sudoeste 0 -- -- 82
2021-02-06 09:00:00 8.5 2 Nordeste 12 Sudeste 0 -- -- 92
2021-02-06 08:00:00 7.4 7 Sudeste 11 Sudeste 0 -- -- 96
2021-02-06 07:00:00 7.5 3 Este 15 Oeste 0.2 -- -- 97
2021-02-06 06:00:00 8.1 6 Sudoeste 16 Sudoeste 1 -- -- 97
2021-02-06 05:00:00 9.1 14 Sudoeste 30 Sudoeste 1.4 -- -- 89
2021-02-06 04:00:00 7.8 6 Sur 11 Sudeste 0 -- -- 93
2021-02-06 03:00:00 7.7 4 Noroeste 9 Sudoeste 0 -- -- 95
2021-02-06 02:00:00 8.3 3 Este 12 Sudeste 0 -- -- 93
2021-02-06 01:00:00 8.1 5 Este 19 Sudeste 0 -- -- 93
2021-02-06 00:00:00 8.2 9 Sudeste 18 Este 0 -- -- 93
2021-02-05 23:00:00 7.9 6 Sur 15 Sur 0 -- -- 94
2021-02-05 22:00:00 7.5 4 Norte 19 Nordeste 0 -- -- 93
2021-02-05 21:00:00 8.4 5 Norte 13 Sudoeste 0 -- -- 91
2021-02-05 20:00:00 9.6 6 Sudoeste 14 Sudoeste 0 -- -- 86
2021-02-05 19:00:00 10 5 Este 20 Este 0 -- -- 86
2021-02-05 18:00:00 11.4 10 Nordeste 33 Este 0 -- -- 81
2021-02-05 17:00:00 12.5 10 Este 24 Nordeste 0 -- -- 78
2021-02-05 16:00:00 14.2 13 Este 22 Nordeste 0 -- -- 71
2021-02-05 15:00:00 13.3 9 Norte 17 Norte 0 -- -- 80
2021-02-05 14:00:00 9.4 3 Este 8 Sur 0 -- -- 100
2021-02-05 13:00:00 8.1 5 Este 23 Este 0 -- -- 100
2021-02-05 12:00:00 7.6 9 Este 18 Este 0 -- -- 100
2021-02-05 11:00:00 7.3 9 Este 18 Este 0 -- -- 100
2021-02-05 10:00:00 6.8 4 Sudeste 10 Sudeste 0 -- -- 100
2021-02-05 09:00:00 6.6 0 Calma 4 Este 0 -- -- 99
2021-02-05 08:00:00 6.5 2 Nordeste 8 Noroeste 0 -- -- 96
2021-02-05 07:00:00 8.6 4 Norte 8 Sur 0 -- -- 88
2021-02-05 06:00:00 10.5 4 Sur 11 Sur 0 -- -- 80
2021-02-05 05:00:00 8.6 4 Sudeste 9 Este 0 -- -- 91
2021-02-05 04:00:00 7.7 4 Sudoeste 9 Sur 0 -- -- 98
2021-02-05 03:00:00 8.2 4 Sur 12 Sudeste 0 -- -- 97
2021-02-05 02:00:00 8.4 7 Sur 12 Sudeste 0 -- -- 95
2021-02-05 01:00:00 7.6 4 Sudeste 11 Sudeste 0 -- -- 93
2021-02-05 00:00:00 7.8 6 Sudeste 12 Sudeste 0 -- -- 93
2021-02-04 23:00:00 8 3 Sudoeste 12 Sudoeste 0 -- -- 94
2021-02-04 22:00:00 9.6 5 Sur 14 Sur 0 -- -- 88
2021-02-04 21:00:00 10.3 4 Sur 10 Sudeste 0 -- -- 85
2021-02-04 20:00:00 11.2 4 Sudeste 12 Sudoeste 0 -- -- 80
2021-02-04 19:00:00 11.2 4 Sudeste 9 Este 0 -- -- 82
2021-02-04 18:00:00 12.9 7 Sudeste 15 Nordeste 0 -- -- 75
2021-02-04 17:00:00 14.8 6 Este 22 Este 0 -- -- 67
2021-02-04 16:00:00 14.8 12 Este 29 Este 0 -- -- 65
2021-02-04 15:00:00 14.5 17 Este 27 Este 0 -- -- 63
2021-02-04 14:00:00 14 13 Este 23 Este 0 -- -- 64
2021-02-04 13:00:00 14.9 8 Este 15 Este 0 -- -- 60
2021-02-04 12:00:00 13.1 11 Este 15 Este 0 -- -- 69
2021-02-04 11:00:00 12.4 0 Calma 4 Este 0 -- -- 72
2021-02-04 10:00:00 11 5 Sudeste 10 Sudeste 0 -- -- 76
2021-02-04 09:00:00 8.1 4 Sudeste 9 Sudeste 0 -- -- 85
2021-02-04 08:00:00 8.6 3 Sudeste 9 Sudeste 0 -- -- 81
2021-02-04 07:00:00 9.1 4 Sur 9 Sudeste 0 -- -- 80
2021-02-04 06:00:00 9.7 6 Sudeste 12 Sudeste 0 -- -- 78
2021-02-04 05:00:00 11.3 3 Sudoeste 15 Sudoeste 0 -- -- 70
2021-02-04 04:00:00 12 5 Sur 15 Sur 0 -- -- 67
2021-02-04 03:00:00 11.8 9 Sur 17 Sur 0 -- -- 67
2021-02-04 02:00:00 11 6 Sudeste 11 Sudeste 0 -- -- 70
2021-02-04 01:00:00 11.9 3 Sur 13 Sur 0 -- -- 67
2021-02-04 00:00:00 12 6 Sur 13 Sur 0 -- -- 68